sensor_id;sensor_type;location;lat;lon;timestamp;pressure;altitude;pressure_sealevel;temperature
9985;BMP180;16737;50.932;6.780;2023-12-28T00:02:02;99807.00;;;14.70
9985;BMP180;16737;50.932;6.780;2023-12-28T00:04:30;99797.00;;;14.70
9985;BMP180;16737;50.932;6.780;2023-12-28T00:07:01;99803.00;;;14.70
9985;BMP180;16737;50.932;6.780;2023-12-28T00:09:28;99813.00;;;14.70
9985;BMP180;16737;50.932;6.780;2023-12-28T00:11:59;99823.00;;;14.70
9985;BMP180;16737;50.932;6.780;2023-12-28T00:14:26;99819.00;;;14.70
9985;BMP180;16737;50.932;6.780;2023-12-28T00:16:53;99823.00;;;14.70
9985;BMP180;16737;50.932;6.780;2023-12-28T00:19:19;99821.00;;;14.70
9985;BMP180;16737;50.932;6.780;2023-12-28T00:21:47;99828.00;;;14.70
9985;BMP180;16737;50.932;6.780;2023-12-28T00:24:15;99818.00;;;14.70
9985;BMP180;16737;50.932;6.780;2023-12-28T00:26:42;99823.00;;;14.70
9985;BMP180;16737;50.932;6.780;2023-12-28T00:29:10;99828.00;;;14.70
9985;BMP180;16737;50.932;6.780;2023-12-28T00:31:37;99825.00;;;14.70
9985;BMP180;16737;50.932;6.780;2023-12-28T00:34:04;99830.00;;;14.70
9985;BMP180;16737;50.932;6.780;2023-12-28T00:36:31;99834.00;;;14.70
9985;BMP180;16737;50.932;6.780;2023-12-28T00:38:59;99840.00;;;14.70
9985;BMP180;16737;50.932;6.780;2023-12-28T00:41:27;99836.00;;;14.70
9985;BMP180;16737;50.932;6.780;2023-12-28T00:43:54;99840.00;;;14.80
9985;BMP180;16737;50.932;6.780;2023-12-28T00:46:22;99843.00;;;14.80
9985;BMP180;16737;50.932;6.780;2023-12-28T00:48:49;99846.00;;;14.80
9985;BMP180;16737;50.932;6.780;2023-12-28T00:51:16;99833.00;;;14.80
9985;BMP180;16737;50.932;6.780;2023-12-28T00:53:43;99836.00;;;14.80
9985;BMP180;16737;50.932;6.780;2023-12-28T00:56:10;99845.00;;;14.80
9985;BMP180;16737;50.932;6.780;2023-12-28T00:58:39;99847.00;;;14.80
9985;BMP180;16737;50.932;6.780;2023-12-28T01:01:06;99858.00;;;14.80
9985;BMP180;16737;50.932;6.780;2023-12-28T01:03:34;99859.00;;;14.80
9985;BMP180;16737;50.932;6.780;2023-12-28T01:06:03;99860.00;;;14.80
9985;BMP180;16737;50.932;6.780;2023-12-28T01:08:30;99851.00;;;14.80
9985;BMP180;16737;50.932;6.780;2023-12-28T01:10:59;99852.00;;;14.70
9985;BMP180;16737;50.932;6.780;2023-12-28T01:13:27;99865.00;;;14.70
9985;BMP180;16737;50.932;6.780;2023-12-28T01:15:54;99855.00;;;14.70
9985;BMP180;16737;50.932;6.780;2023-12-28T01:18:21;99856.00;;;14.70
9985;BMP180;16737;50.932;6.780;2023-12-28T01:20:50;99867.00;;;14.70
9985;BMP180;16737;50.932;6.780;2023-12-28T01:23:17;99872.00;;;14.70
9985;BMP180;16737;50.932;6.780;2023-12-28T01:25:44;99883.00;;;14.70
9985;BMP180;16737;50.932;6.780;2023-12-28T01:28:11;99875.00;;;14.70
9985;BMP180;16737;50.932;6.780;2023-12-28T01:30:40;99872.00;;;14.60
9985;BMP180;16737;50.932;6.780;2023-12-28T01:33:07;99872.00;;;14.60
9985;BMP180;16737;50.932;6.780;2023-12-28T01:35:34;99870.00;;;14.60
9985;BMP180;16737;50.932;6.780;2023-12-28T01:38:02;99880.00;;;14.60
9985;BMP180;16737;50.932;6.780;2023-12-28T01:40:30;99886.00;;;14.60
9985;BMP180;16737;50.932;6.780;2023-12-28T01:42:56;99875.00;;;14.60
9985;BMP180;16737;50.932;6.780;2023-12-28T01:45:23;99886.00;;;14.60
9985;BMP180;16737;50.932;6.780;2023-12-28T01:47:52;99879.00;;;14.60
9985;BMP180;16737;50.932;6.780;2023-12-28T01:50:20;99896.00;;;14.60
9985;BMP180;16737;50.932;6.780;2023-12-28T01:52:49;99892.00;;;14.70
9985;BMP180;16737;50.932;6.780;2023-12-28T01:55:18;99897.00;;;14.70
9985;BMP180;16737;50.932;6.780;2023-12-28T01:57:47;99906.00;;;14.70
9985;BMP180;16737;50.932;6.780;2023-12-28T02:00:15;99890.00;;;14.70
9985;BMP180;16737;50.932;6.780;2023-12-28T02:02:44;99891.00;;;14.70
9985;BMP180;16737;50.932;6.780;2023-12-28T02:05:12;99894.00;;;14.70
9985;BMP180;16737;50.932;6.780;2023-12-28T02:07:39;99888.00;;;14.80
9985;BMP180;16737;50.932;6.780;2023-12-28T02:10:07;99901.00;;;14.80
9985;BMP180;16737;50.932;6.780;2023-12-28T02:12:36;99902.00;;;14.80
9985;BMP180;16737;50.932;6.780;2023-12-28T02:15:04;99898.00;;;14.80
9985;BMP180;16737;50.932;6.780;2023-12-28T02:17:37;99903.00;;;14.80
9985;BMP180;16737;50.932;6.780;2023-12-28T02:20:07;99910.00;;;14.80
9985;BMP180;16737;50.932;6.780;2023-12-28T02:22:35;99898.00;;;14.90
9985;BMP180;16737;50.932;6.780;2023-12-28T02:25:07;99906.00;;;14.90
9985;BMP180;16737;50.932;6.780;2023-12-28T02:27:37;99908.00;;;14.90
9985;BMP180;16737;50.932;6.780;2023-12-28T02:30:07;99923.00;;;14.90
9985;BMP180;16737;50.932;6.780;2023-12-28T02:32:47;99908.00;;;14.90
9985;BMP180;16737;50.932;6.780;2023-12-28T02:35:22;99889.00;;;14.90
9985;BMP180;16737;50.932;6.780;2023-12-28T02:37:53;99924.00;;;15.00
9985;BMP180;16737;50.932;6.780;2023-12-28T02:40:24;99909.00;;;15.00
9985;BMP180;16737;50.932;6.780;2023-12-28T02:42:53;99912.00;;;15.00
9985;BMP180;16737;50.932;6.780;2023-12-28T02:45:20;99911.00;;;15.00
9985;BMP180;16737;50.932;6.780;2023-12-28T02:47:48;99918.00;;;14.90
9985;BMP180;16737;50.932;6.780;2023-12-28T02:50:16;99906.00;;;14.90
9985;BMP180;16737;50.932;6.780;2023-12-28T02:52:42;99899.00;;;14.90
9985;BMP180;16737;50.932;6.780;2023-12-28T02:55:10;99891.00;;;14.80
9985;BMP180;16737;50.932;6.780;2023-12-28T02:57:38;99903.00;;;14.80
9985;BMP180;16737;50.932;6.780;2023-12-28T03:00:07;99910.00;;;14.80
9985;BMP180;16737;50.932;6.780;2023-12-28T03:02:35;99906.00;;;14.70
9985;BMP180;16737;50.932;6.780;2023-12-28T03:05:04;99912.00;;;14.70
9985;BMP180;16737;50.932;6.780;2023-12-28T03:07:32;99902.00;;;14.70
9985;BMP180;16737;50.932;6.780;2023-12-28T03:09:59;99902.00;;;14.70
9985;BMP180;16737;50.932;6.780;2023-12-28T03:12:28;99892.00;;;14.70
9985;BMP180;16737;50.932;6.780;2023-12-28T03:14:56;99894.00;;;14.70
9985;BMP180;16737;50.932;6.780;2023-12-28T03:17:23;99894.00;;;14.70
9985;BMP180;16737;50.932;6.780;2023-12-28T03:19:51;99890.00;;;14.70
9985;BMP180;16737;50.932;6.780;2023-12-28T03:22:18;99878.00;;;14.60
9985;BMP180;16737;50.932;6.780;2023-12-28T03:24:46;99876.00;;;14.60
9985;BMP180;16737;50.932;6.780;2023-12-28T03:27:14;99879.00;;;14.60
9985;BMP180;16737;50.932;6.780;2023-12-28T03:29:41;99892.00;;;14.60
9985;BMP180;16737;50.932;6.780;2023-12-28T03:32:10;99887.00;;;14.50
9985;BMP180;16737;50.932;6.780;2023-12-28T03:34:37;99894.00;;;14.50
9985;BMP180;16737;50.932;6.780;2023-12-28T03:37:04;99900.00;;;14.50
9985;BMP180;16737;50.932;6.780;2023-12-28T03:39:31;99885.00;;;14.50
9985;BMP180;16737;50.932;6.780;2023-12-28T03:41:59;99882.00;;;14.40
9985;BMP180;16737;50.932;6.780;2023-12-28T03:44:26;99884.00;;;14.40
9985;BMP180;16737;50.932;6.780;2023-12-28T03:46:53;99882.00;;;14.40
9985;BMP180;16737;50.932;6.780;2023-12-28T03:49:23;99891.00;;;14.40
9985;BMP180;16737;50.932;6.780;2023-12-28T03:51:51;99890.00;;;14.40
9985;BMP180;16737;50.932;6.780;2023-12-28T03:54:20;99882.00;;;14.40
9985;BMP180;16737;50.932;6.780;2023-12-28T03:56:47;99888.00;;;14.40
9985;BMP180;16737;50.932;6.780;2023-12-28T03:59:14;99875.00;;;14.40
9985;BMP180;16737;50.932;6.780;2023-12-28T04:01:42;99880.00;;;14.40
9985;BMP180;16737;50.932;6.780;2023-12-28T04:04:09;99882.00;;;14.40
9985;BMP180;16737;50.932;6.780;2023-12-28T04:06:38;99873.00;;;14.40
9985;BMP180;16737;50.932;6.780;2023-12-28T04:09:05;99878.00;;;14.40
9985;BMP180;16737;50.932;6.780;2023-12-28T04:11:32;99870.00;;;14.30
9985;BMP180;16737;50.932;6.780;2023-12-28T04:13:59;99857.00;;;14.30
9985;BMP180;16737;50.932;6.780;2023-12-28T04:16:26;99865.00;;;14.30
9985;BMP180;16737;50.932;6.780;2023-12-28T04:18:55;99867.00;;;14.30
9985;BMP180;16737;50.932;6.780;2023-12-28T04:21:22;99865.00;;;14.30
9985;BMP180;16737;50.932;6.780;2023-12-28T04:23:50;99872.00;;;14.30
9985;BMP180;16737;50.932;6.780;2023-12-28T04:26:18;99871.00;;;14.30
9985;BMP180;16737;50.932;6.780;2023-12-28T04:28:46;99879.00;;;14.30
9985;BMP180;16737;50.932;6.780;2023-12-28T04:31:16;99884.00;;;14.30
9985;BMP180;16737;50.932;6.780;2023-12-28T04:33:43;99878.00;;;14.30
9985;BMP180;16737;50.932;6.780;2023-12-28T04:36:10;99886.00;;;14.30
9985;BMP180;16737;50.932;6.780;2023-12-28T04:38:37;99874.00;;;14.30
9985;BMP180;16737;50.932;6.780;2023-12-28T04:41:05;99879.00;;;14.30
9985;BMP180;16737;50.932;6.780;2023-12-28T04:43:32;99871.00;;;14.30
9985;BMP180;16737;50.932;6.780;2023-12-28T04:46:03;99874.00;;;14.30
9985;BMP180;16737;50.932;6.780;2023-12-28T04:48:29;99885.00;;;14.30
9985;BMP180;16737;50.932;6.780;2023-12-28T04:50:56;99880.00;;;14.30
9985;BMP180;16737;50.932;6.780;2023-12-28T04:53:23;99882.00;;;14.30
9985;BMP180;16737;50.932;6.780;2023-12-28T04:55:50;99887.00;;;14.30
9985;BMP180;16737;50.932;6.780;2023-12-28T04:58:19;99889.00;;;14.30
9985;BMP180;16737;50.932;6.780;2023-12-28T05:00:46;99891.00;;;14.30
9985;BMP180;16737;50.932;6.780;2023-12-28T05:03:13;99896.00;;;14.30
9985;BMP180;16737;50.932;6.780;2023-12-28T05:05:40;99902.00;;;14.30
9985;BMP180;16737;50.932;6.780;2023-12-28T05:08:07;99913.00;;;14.30
9985;BMP180;16737;50.932;6.780;2023-12-28T05:10:34;99904.00;;;14.30
9985;BMP180;16737;50.932;6.780;2023-12-28T05:13:01;99912.00;;;14.30
9985;BMP180;16737;50.932;6.780;2023-12-28T05:15:31;99919.00;;;14.30
9985;BMP180;16737;50.932;6.780;2023-12-28T05:17:58;99917.00;;;14.20
9985;BMP180;16737;50.932;6.780;2023-12-28T05:20:24;99930.00;;;14.20
9985;BMP180;16737;50.932;6.780;2023-12-28T05:22:51;99927.00;;;14.20
9985;BMP180;16737;50.932;6.780;2023-12-28T05:25:18;99927.00;;;14.20
9985;BMP180;16737;50.932;6.780;2023-12-28T05:27:46;99935.00;;;14.20
9985;BMP180;16737;50.932;6.780;2023-12-28T05:30:13;99928.00;;;14.20
9985;BMP180;16737;50.932;6.780;2023-12-28T05:32:41;99943.00;;;14.20
9985;BMP180;16737;50.932;6.780;2023-12-28T05:35:08;99930.00;;;14.20
9985;BMP180;16737;50.932;6.780;2023-12-28T05:37:35;99940.00;;;14.20
9985;BMP180;16737;50.932;6.780;2023-12-28T05:40:03;99937.00;;;14.10
9985;BMP180;16737;50.932;6.780;2023-12-28T05:42:30;99933.00;;;14.10
9985;BMP180;16737;50.932;6.780;2023-12-28T05:44:57;99937.00;;;14.10
9985;BMP180;16737;50.932;6.780;2023-12-28T05:47:24;99938.00;;;14.10
9985;BMP180;16737;50.932;6.780;2023-12-28T05:49:52;99950.00;;;14.10
9985;BMP180;16737;50.932;6.780;2023-12-28T05:52:19;99946.00;;;14.10
9985;BMP180;16737;50.932;6.780;2023-12-28T05:54:46;99954.00;;;14.10
9985;BMP180;16737;50.932;6.780;2023-12-28T05:57:14;99963.00;;;14.10
9985;BMP180;16737;50.932;6.780;2023-12-28T05:59:40;99964.00;;;14.10
9985;BMP180;16737;50.932;6.780;2023-12-28T06:02:09;99964.00;;;14.00
9985;BMP180;16737;50.932;6.780;2023-12-28T06:04:36;99963.00;;;14.10
9985;BMP180;16737;50.932;6.780;2023-12-28T06:07:05;99949.00;;;14.00
9985;BMP180;16737;50.932;6.780;2023-12-28T06:09:32;99976.00;;;14.00
9985;BMP180;16737;50.932;6.780;2023-12-28T06:11:59;99968.00;;;14.10
9985;BMP180;16737;50.932;6.780;2023-12-28T06:14:26;99970.00;;;14.10
9985;BMP180;16737;50.932;6.780;2023-12-28T06:16:53;99968.00;;;14.10
9985;BMP180;16737;50.932;6.780;2023-12-28T06:19:20;99970.00;;;14.10
9985;BMP180;16737;50.932;6.780;2023-12-28T06:21:47;99955.00;;;14.10
9985;BMP180;16737;50.932;6.780;2023-12-28T06:24:16;99968.00;;;14.10
9985;BMP180;16737;50.932;6.780;2023-12-28T06:26:44;99981.00;;;14.20
9985;BMP180;16737;50.932;6.780;2023-12-28T06:29:12;99970.00;;;14.20
9985;BMP180;16737;50.932;6.780;2023-12-28T06:31:39;99985.00;;;14.20
9985;BMP180;16737;50.932;6.780;2023-12-28T06:34:07;99984.00;;;14.20
9985;BMP180;16737;50.932;6.780;2023-12-28T06:36:34;99973.00;;;14.20
9985;BMP180;16737;50.932;6.780;2023-12-28T06:39:01;99986.00;;;14.20
9985;BMP180;16737;50.932;6.780;2023-12-28T06:41:32;99992.00;;;14.20
9985;BMP180;16737;50.932;6.780;2023-12-28T06:44:03;99985.00;;;14.20
9985;BMP180;16737;50.932;6.780;2023-12-28T06:46:30;99978.00;;;14.20
9985;BMP180;16737;50.932;6.780;2023-12-28T06:48:57;99983.00;;;14.20
9985;BMP180;16737;50.932;6.780;2023-12-28T06:51:24;99970.00;;;14.20
9985;BMP180;16737;50.932;6.780;2023-12-28T06:53:52;99976.00;;;14.20
9985;BMP180;16737;50.932;6.780;2023-12-28T06:56:19;99983.00;;;14.20
9985;BMP180;16737;50.932;6.780;2023-12-28T06:58:46;99982.00;;;14.20
9985;BMP180;16737;50.932;6.780;2023-12-28T07:01:13;99985.00;;;14.20
9985;BMP180;16737;50.932;6.780;2023-12-28T07:03:41;99969.00;;;14.20
9985;BMP180;16737;50.932;6.780;2023-12-28T07:06:08;99971.00;;;14.20
9985;BMP180;16737;50.932;6.780;2023-12-28T07:08:36;99973.00;;;14.20
9985;BMP180;16737;50.932;6.780;2023-12-28T07:11:03;99984.00;;;14.20
9985;BMP180;16737;50.932;6.780;2023-12-28T07:13:30;99971.00;;;14.20
9985;BMP180;16737;50.932;6.780;2023-12-28T07:15:58;99981.00;;;14.20
9985;BMP180;16737;50.932;6.780;2023-12-28T07:18:25;99979.00;;;14.20
9985;BMP180;16737;50.932;6.780;2023-12-28T07:20:52;99975.00;;;14.20
9985;BMP180;16737;50.932;6.780;2023-12-28T07:23:19;99973.00;;;14.30
9985;BMP180;16737;50.932;6.780;2023-12-28T07:25:47;99969.00;;;14.20
9985;BMP180;16737;50.932;6.780;2023-12-28T07:28:14;99977.00;;;14.20
9985;BMP180;16737;50.932;6.780;2023-12-28T07:30:42;99979.00;;;14.20
9985;BMP180;16737;50.932;6.780;2023-12-28T07:33:10;99990.00;;;14.20
9985;BMP180;16737;50.932;6.780;2023-12-28T07:35:38;99991.00;;;14.20
9985;BMP180;16737;50.932;6.780;2023-12-28T07:38:05;99997.00;;;14.20
9985;BMP180;16737;50.932;6.780;2023-12-28T07:40:32;99996.00;;;14.20
9985;BMP180;16737;50.932;6.780;2023-12-28T07:42:59;100002.00;;;14.20
9985;BMP180;16737;50.932;6.780;2023-12-28T07:45:26;100002.00;;;14.20
9985;BMP180;16737;50.932;6.780;2023-12-28T07:47:53;100005.00;;;14.20
9985;BMP180;16737;50.932;6.780;2023-12-28T07:50:22;100005.00;;;14.20
9985;BMP180;16737;50.932;6.780;2023-12-28T07:52:50;100010.00;;;14.20
9985;BMP180;16737;50.932;6.780;2023-12-28T07:55:17;100013.00;;;14.20
9985;BMP180;16737;50.932;6.780;2023-12-28T07:57:45;100014.00;;;14.20
9985;BMP180;16737;50.932;6.780;2023-12-28T08:00:13;100015.00;;;14.20
9985;BMP180;16737;50.932;6.780;2023-12-28T08:02:40;100026.00;;;14.20
9985;BMP180;16737;50.932;6.780;2023-12-28T08:05:08;99979.00;;;14.20
9985;BMP180;16737;50.932;6.780;2023-12-28T08:07:37;100032.00;;;14.20
9985;BMP180;16737;50.932;6.780;2023-12-28T08:10:05;100033.00;;;14.20
9985;BMP180;16737;50.932;6.780;2023-12-28T08:12:32;100034.00;;;14.20
9985;BMP180;16737;50.932;6.780;2023-12-28T08:14:59;100042.00;;;14.20
9985;BMP180;16737;50.932;6.780;2023-12-28T08:17:26;100048.00;;;14.20
9985;BMP180;16737;50.932;6.780;2023-12-28T08:19:53;100045.00;;;14.20
9985;BMP180;16737;50.932;6.780;2023-12-28T08:22:21;100049.00;;;14.20
9985;BMP180;16737;50.932;6.780;2023-12-28T08:24:49;100062.00;;;14.20
9985;BMP180;16737;50.932;6.780;2023-12-28T08:27:16;100064.00;;;14.20
9985;BMP180;16737;50.932;6.780;2023-12-28T08:29:43;100063.00;;;14.30
9985;BMP180;16737;50.932;6.780;2023-12-28T08:32:11;100059.00;;;14.30
9985;BMP180;16737;50.932;6.780;2023-12-28T08:34:38;100047.00;;;14.30
9985;BMP180;16737;50.932;6.780;2023-12-28T08:37:05;100047.00;;;14.30
9985;BMP180;16737;50.932;6.780;2023-12-28T08:39:32;100043.00;;;14.40
9985;BMP180;16737;50.932;6.780;2023-12-28T08:42:00;100046.00;;;14.40
9985;BMP180;16737;50.932;6.780;2023-12-28T08:44:27;100046.00;;;14.40
9985;BMP180;16737;50.932;6.780;2023-12-28T08:46:54;100053.00;;;14.40
9985;BMP180;16737;50.932;6.780;2023-12-28T08:49:21;100064.00;;;14.40
9985;BMP180;16737;50.932;6.780;2023-12-28T08:51:48;100059.00;;;14.40
9985;BMP180;16737;50.932;6.780;2023-12-28T08:54:16;100060.00;;;14.50
9985;BMP180;16737;50.932;6.780;2023-12-28T08:56:43;100053.00;;;14.50
9985;BMP180;16737;50.932;6.780;2023-12-28T08:59:11;100063.00;;;14.50
9985;BMP180;16737;50.932;6.780;2023-12-28T09:01:38;100067.00;;;14.60
9985;BMP180;16737;50.932;6.780;2023-12-28T09:04:05;100068.00;;;14.60
9985;BMP180;16737;50.932;6.780;2023-12-28T09:06:33;100064.00;;;14.60
9985;BMP180;16737;50.932;6.780;2023-12-28T09:09:01;100060.00;;;14.60
9985;BMP180;16737;50.932;6.780;2023-12-28T09:11:30;100059.00;;;14.60
9985;BMP180;16737;50.932;6.780;2023-12-28T09:13:57;100062.00;;;14.70
9985;BMP180;16737;50.932;6.780;2023-12-28T09:16:26;100056.00;;;14.70
9985;BMP180;16737;50.932;6.780;2023-12-28T09:18:54;100061.00;;;14.70
9985;BMP180;16737;50.932;6.780;2023-12-28T09:21:21;100061.00;;;14.70
9985;BMP180;16737;50.932;6.780;2023-12-28T09:23:48;100069.00;;;14.80
9985;BMP180;16737;50.932;6.780;2023-12-28T09:26:15;100065.00;;;14.80
9985;BMP180;16737;50.932;6.780;2023-12-28T09:28:43;100077.00;;;14.80
9985;BMP180;16737;50.932;6.780;2023-12-28T09:31:11;100063.00;;;14.80
9985;BMP180;16737;50.932;6.780;2023-12-28T09:33:39;100078.00;;;14.80
9985;BMP180;16737;50.932;6.780;2023-12-28T09:36:08;100070.00;;;14.90
9985;BMP180;16737;50.932;6.780;2023-12-28T09:38:38;100075.00;;;14.90
9985;BMP180;16737;50.932;6.780;2023-12-28T09:41:12;100074.00;;;14.90
9985;BMP180;16737;50.932;6.780;2023-12-28T09:43:53;100079.00;;;14.90
9985;BMP180;16737;50.932;6.780;2023-12-28T09:46:21;100082.00;;;15.00
9985;BMP180;16737;50.932;6.780;2023-12-28T09:48:49;100085.00;;;15.00
9985;BMP180;16737;50.932;6.780;2023-12-28T09:51:16;100093.00;;;15.00
9985;BMP180;16737;50.932;6.780;2023-12-28T09:53:43;100084.00;;;15.10
9985;BMP180;16737;50.932;6.780;2023-12-28T09:56:12;100091.00;;;15.10
9985;BMP180;16737;50.932;6.780;2023-12-28T09:58:42;100094.00;;;15.20
9985;BMP180;16737;50.932;6.780;2023-12-28T10:01:10;100090.00;;;15.20
9985;BMP180;16737;50.932;6.780;2023-12-28T10:03:37;100088.00;;;15.30
9985;BMP180;16737;50.932;6.780;2023-12-28T10:06:05;100083.00;;;15.40
9985;BMP180;16737;50.932;6.780;2023-12-28T10:08:32;100084.00;;;15.50
9985;BMP180;16737;50.932;6.780;2023-12-28T10:11:02;100073.00;;;15.60
9985;BMP180;16737;50.932;6.780;2023-12-28T10:13:32;100069.00;;;15.60
9985;BMP180;16737;50.932;6.780;2023-12-28T10:16:00;100076.00;;;15.70
9985;BMP180;16737;50.932;6.780;2023-12-28T10:18:28;100085.00;;;15.80
9985;BMP180;16737;50.932;6.780;2023-12-28T10:20:56;100067.00;;;15.90
9985;BMP180;16737;50.932;6.780;2023-12-28T10:23:25;100065.00;;;16.00
9985;BMP180;16737;50.932;6.780;2023-12-28T10:25:55;100070.00;;;16.00
9985;BMP180;16737;50.932;6.780;2023-12-28T10:28:24;100061.00;;;16.10
9985;BMP180;16737;50.932;6.780;2023-12-28T10:30:55;100060.00;;;16.20
9985;BMP180;16737;50.932;6.780;2023-12-28T10:33:22;100063.00;;;16.20
9985;BMP180;16737;50.932;6.780;2023-12-28T10:35:50;100065.00;;;16.30
9985;BMP180;16737;50.932;6.780;2023-12-28T10:38:18;100060.00;;;16.30
9985;BMP180;16737;50.932;6.780;2023-12-28T10:40:48;100060.00;;;16.40
9985;BMP180;16737;50.932;6.780;2023-12-28T10:43:17;100067.00;;;16.40
9985;BMP180;16737;50.932;6.780;2023-12-28T10:45:50;100052.00;;;16.50
9985;BMP180;16737;50.932;6.780;2023-12-28T10:48:26;100063.00;;;16.50
9985;BMP180;16737;50.932;6.780;2023-12-28T10:50:57;100054.00;;;16.50
9985;BMP180;16737;50.932;6.780;2023-12-28T10:53:37;100068.00;;;16.50
9985;BMP180;16737;50.932;6.780;2023-12-28T10:56:20;100074.00;;;16.60
9985;BMP180;16737;50.932;6.780;2023-12-28T10:58:49;100061.00;;;16.60
9985;BMP180;16737;50.932;6.780;2023-12-28T11:01:22;100067.00;;;16.70
9985;BMP180;16737;50.932;6.780;2023-12-28T11:03:58;100058.00;;;16.70
9985;BMP180;16737;50.932;6.780;2023-12-28T11:06:31;100060.00;;;16.80
9985;BMP180;16737;50.932;6.780;2023-12-28T11:09:00;100054.00;;;16.80
9985;BMP180;16737;50.932;6.780;2023-12-28T11:11:30;100068.00;;;16.90
9985;BMP180;16737;50.932;6.780;2023-12-28T11:14:00;100047.00;;;16.90
9985;BMP180;16737;50.932;6.780;2023-12-28T11:16:29;100042.00;;;17.00
9985;BMP180;16737;50.932;6.780;2023-12-28T11:18:58;100043.00;;;17.00
9985;BMP180;16737;50.932;6.780;2023-12-28T11:21:26;100044.00;;;17.10
9985;BMP180;16737;50.932;6.780;2023-12-28T11:23:54;100061.00;;;17.10
9985;BMP180;16737;50.932;6.780;2023-12-28T11:26:22;100057.00;;;17.20
9985;BMP180;16737;50.932;6.780;2023-12-28T11:29:00;100051.00;;;17.20
9985;BMP180;16737;50.932;6.780;2023-12-28T11:31:27;100043.00;;;17.20
9985;BMP180;16737;50.932;6.780;2023-12-28T11:33:55;100042.00;;;17.20
9985;BMP180;16737;50.932;6.780;2023-12-28T11:36:25;100047.00;;;17.20
9985;BMP180;16737;50.932;6.780;2023-12-28T11:38:56;100044.00;;;17.30
9985;BMP180;16737;50.932;6.780;2023-12-28T11:41:25;100028.00;;;17.30
9985;BMP180;16737;50.932;6.780;2023-12-28T11:43:54;100041.00;;;17.40
9985;BMP180;16737;50.932;6.780;2023-12-28T11:46:22;100033.00;;;17.40
9985;BMP180;16737;50.932;6.780;2023-12-28T11:48:49;100023.00;;;17.50
9985;BMP180;16737;50.932;6.780;2023-12-28T11:51:16;100020.00;;;17.50
9985;BMP180;16737;50.932;6.780;2023-12-28T11:53:45;100027.00;;;17.60
9985;BMP180;16737;50.932;6.780;2023-12-28T11:56:16;100021.00;;;17.70
9985;BMP180;16737;50.932;6.780;2023-12-28T11:58:43;100020.00;;;17.70
9985;BMP180;16737;50.932;6.780;2023-12-28T12:01:13;100021.00;;;17.70
9985;BMP180;16737;50.932;6.780;2023-12-28T12:03:40;100029.00;;;17.80
9985;BMP180;16737;50.932;6.780;2023-12-28T12:06:06;100031.00;;;17.80
9985;BMP180;16737;50.932;6.780;2023-12-28T12:08:34;100035.00;;;17.80
9985;BMP180;16737;50.932;6.780;2023-12-28T12:11:01;100020.00;;;17.80
9985;BMP180;16737;50.932;6.780;2023-12-28T12:13:29;100006.00;;;17.80
9985;BMP180;16737;50.932;6.780;2023-12-28T12:15:57;100032.00;;;17.70
9985;BMP180;16737;50.932;6.780;2023-12-28T12:18:26;100012.00;;;17.70
9985;BMP180;16737;50.932;6.780;2023-12-28T12:20:53;100016.00;;;17.70
9985;BMP180;16737;50.932;6.780;2023-12-28T12:23:21;100014.00;;;17.70
9985;BMP180;16737;50.932;6.780;2023-12-28T12:25:48;100006.00;;;17.70
9985;BMP180;16737;50.932;6.780;2023-12-28T12:28:15;100004.00;;;17.60
9985;BMP180;16737;50.932;6.780;2023-12-28T12:30:50;100009.00;;;17.60
9985;BMP180;16737;50.932;6.780;2023-12-28T12:33:20;100011.00;;;17.60
9985;BMP180;16737;50.932;6.780;2023-12-28T12:35:49;100006.00;;;17.60
9985;BMP180;16737;50.932;6.780;2023-12-28T12:38:17;99997.00;;;17.60
9985;BMP180;16737;50.932;6.780;2023-12-28T12:40:44;100003.00;;;17.60
9985;BMP180;16737;50.932;6.780;2023-12-28T12:43:11;99997.00;;;17.60
9985;BMP180;16737;50.932;6.780;2023-12-28T12:45:39;100003.00;;;17.60
9985;BMP180;16737;50.932;6.780;2023-12-28T12:48:06;100006.00;;;17.60
9985;BMP180;16737;50.932;6.780;2023-12-28T12:50:34;100010.00;;;17.60
9985;BMP180;16737;50.932;6.780;2023-12-28T12:53:05;99996.00;;;17.60
9985;BMP180;16737;50.932;6.780;2023-12-28T12:55:32;99995.00;;;17.60
9985;BMP180;16737;50.932;6.780;2023-12-28T12:57:59;99989.00;;;17.60
9985;BMP180;16737;50.932;6.780;2023-12-28T13:00:27;99994.00;;;17.50
9985;BMP180;16737;50.932;6.780;2023-12-28T13:02:54;99988.00;;;17.50
9985;BMP180;16737;50.932;6.780;2023-12-28T13:05:24;99991.00;;;17.50
9985;BMP180;16737;50.932;6.780;2023-12-28T13:07:51;99986.00;;;17.40
9985;BMP180;16737;50.932;6.780;2023-12-28T13:10:20;99991.00;;;17.40
9985;BMP180;16737;50.932;6.780;2023-12-28T13:12:47;99984.00;;;17.40
9985;BMP180;16737;50.932;6.780;2023-12-28T13:15:14;99993.00;;;17.40
9985;BMP180;16737;50.932;6.780;2023-12-28T13:17:41;99973.00;;;17.40
9985;BMP180;16737;50.932;6.780;2023-12-28T13:20:10;99980.00;;;17.40
9985;BMP180;16737;50.932;6.780;2023-12-28T13:22:37;99975.00;;;17.40
9985;BMP180;16737;50.932;6.780;2023-12-28T13:25:05;99971.00;;;17.30
9985;BMP180;16737;50.932;6.780;2023-12-28T13:27:33;99972.00;;;17.30
9985;BMP180;16737;50.932;6.780;2023-12-28T13:30:00;99968.00;;;17.20
9985;BMP180;16737;50.932;6.780;2023-12-28T13:32:27;99974.00;;;17.20
9985;BMP180;16737;50.932;6.780;2023-12-28T13:34:54;99973.00;;;17.20
9985;BMP180;16737;50.932;6.780;2023-12-28T13:37:22;99960.00;;;17.10
9985;BMP180;16737;50.932;6.780;2023-12-28T13:39:49;99962.00;;;17.00
9985;BMP180;16737;50.932;6.780;2023-12-28T13:42:16;99957.00;;;17.00
9985;BMP180;16737;50.932;6.780;2023-12-28T13:44:44;99962.00;;;17.00
9985;BMP180;16737;50.932;6.780;2023-12-28T13:47:11;99959.00;;;17.00
9985;BMP180;16737;50.932;6.780;2023-12-28T13:49:38;99963.00;;;16.90
9985;BMP180;16737;50.932;6.780;2023-12-28T13:52:06;99965.00;;;16.90
9985;BMP180;16737;50.932;6.780;2023-12-28T13:54:33;99971.00;;;16.90
9985;BMP180;16737;50.932;6.780;2023-12-28T13:57:00;99961.00;;;16.80
9985;BMP180;16737;50.932;6.780;2023-12-28T13:59:28;99958.00;;;16.80
9985;BMP180;16737;50.932;6.780;2023-12-28T14:01:56;99951.00;;;16.70
9985;BMP180;16737;50.932;6.780;2023-12-28T14:04:25;99951.00;;;16.70
9985;BMP180;16737;50.932;6.780;2023-12-28T14:06:51;99963.00;;;16.70
9985;BMP180;16737;50.932;6.780;2023-12-28T14:09:18;99962.00;;;16.70
9985;BMP180;16737;50.932;6.780;2023-12-28T14:11:49;99954.00;;;16.60
9985;BMP180;16737;50.932;6.780;2023-12-28T14:14:16;99954.00;;;16.60
9985;BMP180;16737;50.932;6.780;2023-12-28T14:16:44;99954.00;;;16.60
9985;BMP180;16737;50.932;6.780;2023-12-28T14:19:12;99943.00;;;16.60
9985;BMP180;16737;50.932;6.780;2023-12-28T14:21:40;99944.00;;;16.50